Time;durP1;ratioP1;P1;durP2;ratioP2;P2;SDS_P1;SDS_P2;PMS_P1;PMS_P2;Temp;Humidity;BMP_temperature;BMP_pressure;BME280_temperature;BME280_humidity;BME280_pressure;Samples;Min_cycle;Max_cycle;Signal;HPM_P1;HPM_P2
2021/11/13 00:00:20;;;;;;;16.07;13.33;;;7.90;99.90;;;;;;4974258;28;20673;-59
2021/11/13 00:02:46;;;;;;;14.40;11.87;;;8.00;99.90;;;;;;4973998;28;20166;-60
2021/11/13 00:05:12;;;;;;;16.53;12.20;;;7.80;99.90;;;;;;4974791;28;20209;-56
2021/11/13 00:07:38;;;;;;;15.07;11.47;;;7.70;99.90;;;;;;4974849;28;20188;-56
2021/11/13 00:10:05;;;;;;;15.97;12.47;;;7.30;99.90;;;;;;4974460;28;20658;-55
2021/11/13 00:12:31;;;;;;;19.10;13.50;;;7.40;99.90;;;;;;4973984;28;20178;-53
2021/11/13 00:15:00;;;;;;;17.83;13.57;;;7.20;99.90;;;;;;4973724;28;20213;-52
2021/11/13 00:17:25;;;;;;;16.80;13.23;;;7.10;99.90;;;;;;4974463;28;20182;-52
2021/11/13 00:19:51;;;;;;;17.37;12.67;;;7.10;99.90;;;;;;4976045;28;20240;-57
2021/11/13 00:22:16;;;;;;;16.43;12.53;;;7.20;99.90;;;;;;4974223;28;20213;-55
2021/11/13 00:24:42;;;;;;;17.30;13.10;;;7.30;99.90;;;;;;4974632;28;20236;-53
2021/11/13 00:27:08;;;;;;;16.70;12.43;;;7.30;99.90;;;;;;4973906;28;20204;-54
2021/11/13 00:29:34;;;;;;;17.63;13.53;;;7.30;99.90;;;;;;4973205;28;20232;-59
2021/11/13 00:32:00;;;;;;;15.40;12.37;;;7.30;99.90;;;;;;4973426;28;20182;-50
2021/11/13 00:34:26;;;;;;;15.93;12.10;;;7.40;99.90;;;;;;4973678;28;20356;-56
2021/11/13 00:36:53;;;;;;;15.53;12.57;;;7.40;99.90;;;;;;4972871;28;20190;-59
2021/11/13 00:39:20;;;;;;;16.43;12.50;;;7.50;99.90;;;;;;4973942;28;20178;-57
2021/11/13 00:41:46;;;;;;;15.43;11.93;;;7.60;99.90;;;;;;4973653;28;20184;-58
2021/11/13 00:44:12;;;;;;;16.87;12.47;;;7.70;99.90;;;;;;4973196;28;20680;-58
2021/11/13 00:46:39;;;;;;;14.50;11.97;;;7.60;99.90;;;;;;4973652;28;20173;-55
2021/11/13 00:49:05;;;;;;;15.23;11.60;;;7.50;99.90;;;;;;4973696;28;20185;-59
2021/11/13 00:51:32;;;;;;;16.30;12.07;;;7.50;99.90;;;;;;4972914;28;20272;-57
2021/11/13 00:53:58;;;;;;;16.17;11.67;;;7.60;99.90;;;;;;4974138;28;20189;-57
2021/11/13 00:56:23;;;;;;;15.90;12.23;;;7.50;99.90;;;;;;4973435;28;20540;-55
2021/11/13 00:58:49;;;;;;;14.87;11.77;;;7.50;99.90;;;;;;4973254;28;20189;-52
2021/11/13 01:01:15;;;;;;;16.10;11.63;;;7.50;99.90;;;;;;4972826;28;20194;-56
2021/11/13 01:03:41;;;;;;;15.57;12.10;;;7.50;99.90;;;;;;4972226;28;20627;-55
2021/11/13 01:06:07;;;;;;;15.17;12.07;;;7.60;99.90;;;;;;4972669;28;20201;-59
2021/11/13 01:08:32;;;;;;;16.13;12.80;;;7.50;99.90;;;;;;4972750;28;20213;-58
2021/11/13 01:10:58;;;;;;;17.03;12.30;;;7.40;99.90;;;;;;4973087;28;20184;-56
2021/11/13 01:13:23;;;;;;;15.27;11.37;;;7.40;99.90;;;;;;4972160;28;20268;-51
2021/11/13 01:15:49;;;;;;;15.40;12.07;;;7.50;99.90;;;;;;4972965;28;20584;-55
2021/11/13 01:18:15;;;;;;;15.83;11.80;;;7.50;99.90;;;;;;4973367;28;20182;-60
2021/11/13 01:20:41;;;;;;;16.47;12.37;;;9.40;99.90;;;;;;4972296;28;20174;-58
2021/11/13 01:23:07;;;;;;;18.07;12.87;;;7.60;99.90;;;;;;4972802;28;20178;-60
2021/11/13 01:25:33;;;;;;;16.03;11.63;;;7.60;99.90;;;;;;4972905;28;20330;-58
2021/11/13 01:27:59;;;;;;;16.13;12.57;;;7.70;99.90;;;;;;4972205;28;20190;-56
2021/11/13 01:30:25;;;;;;;16.83;12.07;;;7.70;99.90;;;;;;4972197;28;20247;-54
2021/11/13 01:32:51;;;;;;;15.47;12.27;;;7.70;99.90;;;;;;4972858;28;20185;-54
2021/11/13 01:35:17;;;;;;;15.93;12.23;;;7.70;99.90;;;;;;4971951;28;20206;-52
2021/11/13 01:37:43;;;;;;;15.70;12.27;;;7.70;99.90;;;;;;4973146;28;20177;-56
2021/11/13 01:40:13;;;;;;;16.67;11.90;;;7.80;99.90;;;;;;4972997;28;20178;-59
2021/11/13 01:42:39;;;;;;;15.83;11.77;;;7.80;99.90;;;;;;4972776;28;20186;-55
2021/11/13 01:45:06;;;;;;;14.93;11.83;;;7.70;99.90;;;;;;4972409;28;20202;-54
2021/11/13 01:47:32;;;;;;;17.90;12.00;;;7.70;99.90;;;;;;4972394;28;20184;-57
2021/11/13 01:49:58;;;;;;;16.27;11.37;;;7.70;99.90;;;;;;4972987;28;20217;-56
2021/11/13 01:52:24;;;;;;;16.30;12.17;;;7.70;99.90;;;;;;4971892;28;20186;-62
2021/11/13 01:54:49;;;;;;;15.00;11.77;;;7.80;99.90;;;;;;4972678;28;20292;-61
2021/11/13 01:57:22;;;;;;;14.20;11.27;;;7.80;99.90;;;;;;4972618;28;20294;-51
2021/11/13 01:59:51;;;;;;;17.20;11.47;;;7.90;99.90;;;;;;4972852;28;20182;-51
2021/11/13 02:02:17;;;;;;;14.03;10.90;;;7.90;99.90;;;;;;4972384;28;20571;-52
2021/11/13 02:04:43;;;;;;;16.90;11.97;;;7.90;99.90;;;;;;4970971;28;20624;-52
2021/11/13 02:07:09;;;;;;;15.33;11.73;;;7.90;99.90;;;;;;4972824;28;20236;-52
2021/11/13 02:09:35;;;;;;;14.93;11.50;;;7.80;99.90;;;;;;4972398;28;20186;-51
2021/11/13 02:12:01;;;;;;;16.97;12.67;;;7.70;99.90;;;;;;4972067;28;20675;-51
2021/11/13 02:14:27;;;;;;;17.30;12.37;;;7.60;99.90;;;;;;4971468;28;20228;-52
2021/11/13 02:16:53;;;;;;;16.97;12.37;;;7.60;99.90;;;;;;4971920;28;20240;-51
2021/11/13 02:19:19;;;;;;;14.13;11.10;;;7.60;99.90;;;;;;4971817;28;20178;-54
2021/11/13 02:21:46;;;;;;;13.97;11.03;;;7.60;99.90;;;;;;4971789;28;20800;-52
2021/11/13 02:24:11;;;;;;;13.87;10.50;;;7.60;99.90;;;;;;4971456;28;20234;-51
2021/11/13 02:26:37;;;;;;;14.53;10.57;;;7.70;99.90;;;;;;4971317;28;20216;-57
2021/11/13 02:29:04;;;;;;;15.70;11.90;;;7.80;99.90;;;;;;4972146;28;20672;-52
2021/11/13 02:31:41;;;;;;;13.60;10.60;;;7.80;99.90;;;;;;4971678;28;20196;-58
2021/11/13 02:34:09;;;;;;;16.00;12.27;;;7.70;99.90;;;;;;4971510;28;20549;-54
2021/11/13 02:36:35;;;;;;;14.97;12.00;;;7.70;99.90;;;;;;4972138;28;20292;-57
2021/11/13 02:39:03;;;;;;;15.60;11.57;;;7.80;99.90;;;;;;4971338;28;20541;-57
2021/11/13 02:41:29;;;;;;;15.10;11.37;;;7.80;99.90;;;;;;4971627;28;20174;-57
2021/11/13 02:43:57;;;;;;;15.33;11.53;;;7.90;99.90;;;;;;4971573;28;20640;-57
2021/11/13 02:46:23;;;;;;;15.90;11.77;;;7.90;99.90;;;;;;4971827;28;20681;-57
2021/11/13 02:48:49;;;;;;;16.67;11.97;;;7.90;99.90;;;;;;4971404;28;20258;-54
2021/11/13 02:51:15;;;;;;;17.00;12.17;;;7.90;99.90;;;;;;4970160;28;20264;-55
2021/11/13 02:53:43;;;;;;;18.57;12.60;;;7.70;99.90;;;;;;4970537;28;20177;-55
2021/11/13 02:56:11;;;;;;;16.63;12.30;;;7.50;99.90;;;;;;4971847;28;20209;-59
2021/11/13 02:58:38;;;;;;;16.70;12.23;;;7.40;99.90;;;;;;4971438;28;20188;-57
2021/11/13 03:01:12;;;;;;;15.37;11.73;;;7.30;99.90;;;;;;4971709;28;20174;-51
2021/11/13 03:03:39;;;;;;;14.07;11.20;;;7.30;99.90;;;;;;4971113;28;20255;-53
2021/11/13 03:06:11;;;;;;;15.60;12.07;;;7.30;99.90;;;;;;4970870;28;20204;-59
2021/11/13 03:08:37;;;;;;;15.73;11.73;;;7.40;99.90;;;;;;4970940;28;20592;-54
2021/11/13 03:11:05;;;;;;;19.27;12.57;;;7.40;99.90;;;;;;4971764;28;20182;-55
2021/11/13 03:13:32;;;;;;;16.40;12.00;;;7.50;99.90;;;;;;4971444;28;20185;-57
2021/11/13 03:16:00;;;;;;;19.13;13.23;;;7.30;99.90;;;;;;4971345;28;20209;-57
2021/11/13 03:18:26;;;;;;;18.80;12.53;;;7.10;99.90;;;;;;4971146;28;20584;-53
2021/11/13 03:20:52;;;;;;;18.53;12.07;;;7.10;99.90;;;;;;4971523;28;20640;-53
2021/11/13 03:23:18;;;;;;;15.93;11.63;;;7.20;99.90;;;;;;4970827;28;20185;-57
2021/11/13 03:25:50;;;;;;;16.17;12.07;;;7.30;99.90;;;;;;4971257;28;20626;-53
2021/11/13 03:28:19;;;;;;;17.23;11.97;;;7.30;99.90;;;;;;4971185;28;20180;-52
2021/11/13 03:30:45;;;;;;;15.97;11.90;;;7.50;99.90;;;;;;4971042;28;20189;-55
2021/11/13 03:33:10;;;;;;;14.67;11.13;;;7.50;99.90;;;;;;4971408;28;20182;-56
2021/11/13 03:35:36;;;;;;;18.30;12.87;;;7.40;99.90;;;;;;4970335;28;20731;-53
2021/11/13 03:38:20;;;;;;;16.00;12.33;;;7.30;99.90;;;;;;4971247;28;20184;-51
2021/11/13 03:40:47;;;;;;;19.60;12.80;;;7.30;99.90;;;;;;4971154;28;20178;-55
2021/11/13 03:43:14;;;;;;;14.63;11.13;;;7.30;99.90;;;;;;4970686;28;20209;-54
2021/11/13 03:45:42;;;;;;;14.90;11.30;;;7.30;99.90;;;;;;4970820;28;20198;-55
2021/11/13 03:48:08;;;;;;;15.43;11.50;;;7.30;99.90;;;;;;4971087;28;20553;-55
2021/11/13 03:50:33;;;;;;;16.13;11.93;;;7.40;99.90;;;;;;4972506;28;20422;-57
2021/11/13 03:53:00;;;;;;;17.60;11.53;;;7.20;99.90;;;;;;4974446;28;20218;-56
2021/11/13 03:55:26;;;;;;;17.00;11.83;;;7.20;99.90;;;;;;4974162;28;20221;-57
2021/11/13 03:57:52;;;;;;;14.87;12.00;;;7.20;99.90;;;;;;4975131;28;20185;-56
2021/11/13 04:00:20;;;;;;;15.63;11.87;;;7.20;99.90;;;;;;4974758;28;20181;-50
2021/11/13 04:02:47;;;;;;;17.67;12.33;;;7.10;99.90;;;;;;4974656;28;20174;-49
2021/11/13 04:05:14;;;;;;;16.03;12.27;;;6.90;99.90;;;;;;4974410;28;20343;-47
2021/11/13 04:07:40;;;;;;;14.80;11.90;;;6.70;99.90;;;;;;4975125;28;20208;-62
2021/11/13 04:10:07;;;;;;;15.87;12.10;;;6.60;99.90;;;;;;4973616;28;20185;-62
2021/11/13 04:12:34;;;;;;;15.73;12.03;;;6.60;99.90;;;;;;4974772;28;20189;-55
2021/11/13 04:15:00;;;;;;;15.93;11.33;;;6.60;99.90;;;;;;4974438;28;20264;-60
2021/11/13 04:17:26;;;;;;;15.83;11.80;;;6.50;99.90;;;;;;4974573;28;20174;-52
2021/11/13 04:19:52;;;;;;;17.30;12.40;;;6.40;99.90;;;;;;4974501;28;20584;-54
2021/11/13 04:22:18;;;;;;;16.53;12.63;;;6.30;99.90;;;;;;4974072;28;20174;-51
2021/11/13 04:24:43;;;;;;;19.17;13.23;;;6.30;99.90;;;;;;4973773;28;20209;-54
2021/11/13 04:27:09;;;;;;;15.30;12.37;;;6.50;99.90;;;;;;4974190;28;20671;-50
2021/11/13 04:29:35;;;;;;;15.57;11.93;;;6.50;99.90;;;;;;4973948;28;20182;-54
2021/11/13 04:32:00;;;;;;;13.63;10.77;;;6.60;99.90;;;;;;4974175;28;20644;-59
2021/11/13 04:37:16;;;;;;;16.47;13.00;;;6.60;99.90;;;;;;5011423;28;20220;-62
2021/11/13 04:39:43;;;;;;;16.00;11.70;;;6.40;99.90;;;;;;5013804;28;20235;-64
2021/11/13 04:42:09;;;;;;;17.30;11.77;;;6.20;99.90;;;;;;5012709;28;20168;-64
2021/11/13 04:44:34;;;;;;;15.30;11.67;;;6.00;99.90;;;;;;5012175;28;20184;-65
2021/11/13 04:47:00;;;;;;;16.37;11.80;;;6.00;99.90;;;;;;5013085;28;20222;-64
2021/11/13 04:49:25;;;;;;;16.53;11.90;;;6.00;99.90;;;;;;5012072;28;20666;-63
2021/11/13 04:51:51;;;;;;;18.20;12.83;;;6.20;99.90;;;;;;5012668;28;20177;-58
2021/11/13 04:54:17;;;;;;;21.27;14.37;;;6.40;99.90;;;;;;5013336;28;20208;-64
2021/11/13 04:56:42;;;;;;;18.50;13.67;;;6.40;99.90;;;;;;5012740;28;20681;-64
2021/11/13 04:59:08;;;;;;;16.20;12.33;;;6.20;99.90;;;;;;5012477;28;20248;-62
2021/11/13 05:01:33;;;;;;;18.67;12.90;;;6.00;99.90;;;;;;5011592;28;20631;-63
2021/11/13 05:03:59;;;;;;;17.40;12.87;;;5.90;99.90;;;;;;5012220;28;20173;-65
2021/11/13 05:06:28;;;;;;;17.60;12.90;;;6.00;99.90;;;;;;5012347;28;20207;-63
2021/11/13 05:08:54;;;;;;;16.77;12.67;;;6.20;99.90;;;;;;5012858;28;20172;-64
2021/11/13 05:11:19;;;;;;;18.70;12.97;;;6.40;99.90;;;;;;5012255;28;20268;-61
2021/11/13 05:13:45;;;;;;;17.47;12.50;;;6.50;99.90;;;;;;5011316;28;20164;-65
2021/11/13 05:16:10;;;;;;;18.20;12.67;;;6.60;99.90;;;;;;5012041;28;20216;-63
2021/11/13 05:18:36;;;;;;;14.17;9.93;;;6.50;99.90;;;;;;5012233;28;20200;-65
2021/11/13 05:21:01;;;;;;;15.13;10.77;;;6.00;99.90;;;;;;5011476;28;20203;-64
2021/11/13 05:23:27;;;;;;;14.90;11.30;;;5.90;99.90;;;;;;5011358;28;20181;-65
2021/11/13 05:25:53;;;;;;;14.70;10.87;;;5.90;99.90;;;;;;5012131;28;20291;-64
2021/11/13 05:28:19;;;;;;;16.40;11.33;;;6.00;99.90;;;;;;5011899;28;20518;-65
2021/11/13 05:30:45;;;;;;;14.60;10.47;;;6.00;99.90;;;;;;5010291;28;20195;-63
2021/11/13 05:33:10;;;;;;;15.37;11.40;;;5.90;99.90;;;;;;5010198;28;20188;-63
2021/11/13 05:35:36;;;;;;;14.13;10.20;;;6.00;99.90;;;;;;5010634;28;20219;-64
2021/11/13 05:38:03;;;;;;;13.50;9.80;;;5.90;99.90;;;;;;5011992;28;20226;-60
2021/11/13 05:40:30;;;;;;;15.47;11.33;;;6.00;99.90;;;;;;5011862;28;20280;-62
2021/11/13 05:42:55;;;;;;;15.77;11.00;;;6.10;99.90;;;;;;5011442;28;20677;-63
2021/11/13 05:45:22;;;;;;;14.20;10.70;;;6.10;99.90;;;;;;5012299;28;20208;-64
2021/11/13 05:47:47;;;;;;;15.40;11.07;;;6.20;99.90;;;;;;5011910;28;20177;-63
2021/11/13 05:50:16;;;;;;;14.17;10.70;;;6.30;99.90;;;;;;5011636;28;20172;-62
2021/11/13 05:52:44;;;;;;;14.63;10.57;;;6.50;99.90;;;;;;5011566;28;20255;-63
2021/11/13 05:55:12;;;;;;;16.23;11.50;;;6.60;99.90;;;;;;5011356;28;20876;-64
2021/11/13 05:57:38;;;;;;;13.90;11.00;;;6.80;99.90;;;;;;5012162;28;20176;-64
2021/11/13 06:00:08;;;;;;;13.27;10.73;;;7.00;99.90;;;;;;5011297;28;20818;-62
2021/11/13 06:02:33;;;;;;;15.97;11.10;;;6.90;99.90;;;;;;5011302;28;20176;-64
2021/11/13 06:04:59;;;;;;;12.97;9.87;;;7.00;99.90;;;;;;5011491;28;20197;-64
2021/11/13 06:07:24;;;;;;;14.10;10.00;;;6.80;99.90;;;;;;5010249;28;20179;-63
2021/11/13 06:09:50;;;;;;;11.63;9.23;;;6.70;99.90;;;;;;5009858;28;20207;-64
2021/11/13 06:12:16;;;;;;;13.67;10.27;;;6.70;99.90;;;;;;5011223;28;20183;-64
2021/11/13 06:14:41;;;;;;;13.73;10.40;;;6.80;99.90;;;;;;5011292;28;20291;-64
2021/11/13 06:17:07;;;;;;;14.00;10.27;;;6.90;99.90;;;;;;5011226;28;20548;-63
2021/11/13 06:19:32;;;;;;;12.50;9.90;;;7.00;99.90;;;;;;5011230;28;20214;-64
2021/11/13 06:21:58;;;;;;;13.70;10.13;;;6.90;99.90;;;;;;5010712;28;20658;-64
2021/11/13 06:24:24;;;;;;;12.50;9.73;;;6.80;99.90;;;;;;5011117;28;20195;-63
2021/11/13 06:26:49;;;;;;;13.17;10.10;;;6.70;99.90;;;;;;5011156;28;20204;-62
2021/11/13 06:29:15;;;;;;;14.00;10.53;;;6.70;99.90;;;;;;5010780;28;20181;-64
2021/11/13 06:31:40;;;;;;;13.20;9.93;;;6.80;99.90;;;;;;5010252;28;20172;-61
2021/11/13 06:34:06;;;;;;;12.40;9.37;;;6.90;99.90;;;;;;5020501;28;20194;-64
2021/11/13 06:36:32;;;;;;;12.40;9.80;;;6.90;99.90;;;;;;5025740;28;20266;-59
2021/11/13 06:38:57;;;;;;;12.83;9.73;;;6.80;99.90;;;;;;5030071;28;20179;-62
2021/11/13 06:41:26;;;;;;;11.93;8.83;;;6.80;99.90;;;;;;5039692;28;20693;-63
2021/11/13 06:43:53;;;;;;;13.77;10.67;;;6.90;99.90;;;;;;5029932;28;20168;-62
2021/11/13 06:46:18;;;;;;;14.30;10.50;;;6.90;99.90;;;;;;5026766;28;20580;-64
2021/11/13 06:48:44;;;;;;;13.40;10.37;;;6.90;99.90;;;;;;5020661;28;20184;-62
2021/11/13 06:51:09;;;;;;;13.00;9.60;;;6.80;99.90;;;;;;5033859;28;20191;-59
2021/11/13 06:53:35;;;;;;;13.77;10.20;;;6.90;99.90;;;;;;5029967;28;20175;-63
2021/11/13 06:56:01;;;;;;;13.20;10.13;;;6.80;99.90;;;;;;5036156;28;20697;-63
2021/11/13 06:58:27;;;;;;;15.00;10.30;;;6.90;99.90;;;;;;5030508;28;20199;-62
2021/11/13 07:00:53;;;;;;;13.20;9.93;;;7.00;99.90;;;;;;5029608;28;20713;-64
2021/11/13 07:03:18;;;;;;;15.23;10.23;;;7.10;99.90;;;;;;5029843;28;20178;-60
2021/11/13 07:05:44;;;;;;;12.73;9.87;;;7.10;99.90;;;;;;5029306;28;20203;-64
2021/11/13 07:08:09;;;;;;;13.73;10.63;;;7.00;99.90;;;;;;5029820;28;20176;-61
2021/11/13 07:10:35;;;;;;;13.50;10.03;;;6.90;99.90;;;;;;5029176;28;20179;-64
2021/11/13 07:13:01;;;;;;;13.37;10.47;;;6.90;99.90;;;;;;5029851;28;20558;-63
2021/11/13 07:15:31;;;;;;;15.90;10.50;;;6.80;99.90;;;;;;5029289;28;20215;-63
2021/11/13 07:18:01;;;;;;;14.27;11.23;;;6.80;99.90;;;;;;5029774;28;20172;-64
2021/11/13 07:20:27;;;;;;;14.00;10.30;;;6.70;99.90;;;;;;5030485;28;20730;-63
2021/11/13 07:22:53;;;;;;;13.43;10.57;;;6.70;99.90;;;;;;5011905;28;20187;-65
2021/11/13 07:25:19;;;;;;;14.03;10.53;;;6.40;99.90;;;;;;5012024;28;20196;-63
2021/11/13 07:27:46;;;;;;;15.70;10.63;;;6.10;99.90;;;;;;5013943;28;20176;-63
2021/11/13 07:30:16;;;;;;;14.80;11.00;;;6.20;99.90;;;;;;5023013;28;20666;-64
2021/11/13 07:32:43;;;;;;;16.37;11.27;;;6.20;99.90;;;;;;5033383;28;20554;-61
2021/11/13 07:35:08;;;;;;;20.23;13.73;;;6.20;99.90;;;;;;5033118;28;20333;-61
2021/11/13 07:37:34;;;;;;;19.97;14.57;;;6.20;99.90;;;;;;5033676;28;20196;-62
2021/11/13 07:40:00;;;;;;;20.30;13.93;;;6.20;99.90;;;;;;5033292;28;20185;-65
2021/11/13 07:42:25;;;;;;;22.00;14.73;;;6.10;99.90;;;;;;5033481;28;20168;-64
2021/11/13 07:44:51;;;;;;;22.03;14.80;;;6.10;99.90;;;;;;5032974;28;20661;-63
2021/11/13 07:47:17;;;;;;;18.30;14.23;;;5.90;99.90;;;;;;5032422;28;20718;-64
2021/11/13 07:49:44;;;;;;;20.37;14.63;;;5.90;99.90;;;;;;5033386;28;20176;-63
2021/11/13 07:52:10;;;;;;;18.77;13.73;;;5.70;99.90;;;;;;5031780;28;20175;-60
2021/11/13 07:54:35;;;;;;;20.03;13.50;;;5.60;99.90;;;;;;5013782;28;20200;-61
2021/11/13 07:57:02;;;;;;;17.83;12.97;;;6.70;99.90;;;;;;5013814;28;20204;-64
2021/11/13 07:59:27;;;;;;;17.70;12.67;;;5.80;99.90;;;;;;5033225;28;20183;-63
2021/11/13 08:01:53;;;;;;;18.17;13.17;;;5.90;99.90;;;;;;5032479;28;20164;-63
2021/11/13 08:04:18;;;;;;;17.40;12.23;;;5.80;99.90;;;;;;5031809;28;20199;-60
2021/11/13 08:06:44;;;;;;;20.37;14.90;;;5.90;99.90;;;;;;5032363;28;20257;-64
2021/11/13 08:09:09;;;;;;;20.13;14.47;;;5.80;99.90;;;;;;5033016;28;20176;-63
2021/11/13 08:11:35;;;;;;;25.67;15.80;;;5.90;99.90;;;;;;5032980;28;20175;-63
2021/11/13 08:14:01;;;;;;;21.13;15.03;;;5.90;99.90;;;;;;5032708;28;20310;-64
2021/11/13 08:16:26;;;;;;;20.80;14.67;;;6.00;99.90;;;;;;5033172;28;20313;-64
2021/11/13 08:18:52;;;;;;;18.60;14.50;;;6.20;99.90;;;;;;5032873;28;20538;-64
2021/11/13 08:21:18;;;;;;;20.57;14.93;;;6.40;99.90;;;;;;5029454;28;20179;-65
2021/11/13 08:23:43;;;;;;;20.70;14.50;;;6.50;99.90;;;;;;5015206;28;20921;-64
2021/11/13 08:26:09;;;;;;;20.97;15.67;;;6.50;99.90;;;;;;5014380;28;20295;-64
2021/11/13 08:28:35;;;;;;;29.37;21.30;;;6.40;99.90;;;;;;5031850;28;20186;-63
2021/11/13 08:31:02;;;;;;;19.77;14.43;;;6.50;99.90;;;;;;5032997;28;20549;-61
2021/11/13 08:33:28;;;;;;;22.50;15.40;;;6.60;99.90;;;;;;5032715;28;20287;-60
2021/11/13 08:35:55;;;;;;;22.43;16.63;;;6.40;99.90;;;;;;5031387;28;20613;-62
2021/11/13 08:38:21;;;;;;;22.70;16.33;;;6.00;99.90;;;;;;5028805;28;20199;-62
2021/11/13 08:40:49;;;;;;;24.27;17.20;;;5.90;99.90;;;;;;5026539;28;20258;-62
2021/11/13 08:43:16;;;;;;;24.10;16.50;;;5.80;99.90;;;;;;5021286;28;20214;-61
2021/11/13 08:45:42;;;;;;;23.97;17.27;;;5.80;99.90;;;;;;5041033;28;20217;-62
2021/11/13 08:48:08;;;;;;;23.50;16.67;;;5.70;99.90;;;;;;5026404;28;20957;-62
2021/11/13 08:50:34;;;;;;;24.53;17.20;;;5.80;99.90;;;;;;5025075;28;20191;-63
2021/11/13 08:53:02;;;;;;;25.23;17.50;;;5.90;99.90;;;;;;5032032;28;20202;-59
2021/11/13 08:55:31;;;;;;;24.53;17.57;;;6.00;99.90;;;;;;5031824;28;20285;-58
2021/11/13 08:57:58;;;;;;;24.57;16.70;;;6.00;99.90;;;;;;5031941;28;20867;-57
2021/11/13 09:00:30;;;;;;;24.53;17.00;;;6.10;99.90;;;;;;5033722;28;20160;-55
2021/11/13 09:02:58;;;;;;;22.90;16.63;;;6.30;99.90;;;;;;5031845;28;20718;-56
2021/11/13 09:05:24;;;;;;;22.10;16.33;;;6.60;99.90;;;;;;5033067;28;20196;-55
2021/11/13 09:07:51;;;;;;;24.37;16.53;;;6.80;99.90;;;;;;5032450;28;20190;-57
2021/11/13 09:10:17;;;;;;;24.47;17.97;;;6.80;99.90;;;;;;5033533;28;20732;-60
2021/11/13 09:12:43;;;;;;;21.80;16.17;;;6.90;99.90;;;;;;5028112;28;20266;-60
2021/11/13 09:15:25;;;;;;;23.97;16.87;;;6.90;99.90;;;;;;5030014;28;20207;-59
2021/11/13 09:17:53;;;;;;;25.70;17.20;;;7.10;99.90;;;;;;5031937;28;20176;-55
2021/11/13 09:20:20;;;;;;;22.30;16.17;;;7.00;99.90;;;;;;5032271;28;20965;-58
2021/11/13 09:22:47;;;;;;;24.93;17.10;;;6.90;99.90;;;;;;5033916;28;20175;-54
2021/11/13 09:25:13;;;;;;;23.10;16.43;;;6.70;99.90;;;;;;5033528;28;20667;-60
2021/11/13 09:27:41;;;;;;;23.13;15.70;;;6.60;99.90;;;;;;5032420;28;20191;-56
2021/11/13 09:30:23;;;;;;;20.57;15.27;;;6.40;99.90;;;;;;5031981;28;20176;-57
2021/11/13 09:32:49;;;;;;;20.17;14.30;;;6.30;99.90;;;;;;5031236;28;20266;-55
2021/11/13 09:35:16;;;;;;;21.87;14.77;;;6.30;99.90;;;;;;5027279;28;20306;-54
2021/11/13 09:37:46;;;;;;;20.87;14.80;;;6.30;99.90;;;;;;5031254;28;20234;-58
2021/11/13 09:40:12;;;;;;;23.43;15.37;;;6.30;99.90;;;;;;5031736;28;20558;-61
2021/11/13 09:42:38;;;;;;;23.23;16.17;;;6.40;99.90;;;;;;5031584;28;20180;-59
2021/11/13 09:45:06;;;;;;;20.57;15.63;;;6.50;99.90;;;;;;5031084;28;20286;-58
2021/11/13 09:47:34;;;;;;;21.87;15.53;;;6.60;99.90;;;;;;5031321;28;20237;-63
2021/11/13 09:50:00;;;;;;;20.90;15.43;;;6.60;99.90;;;;;;5031765;28;20230;-66
2021/11/13 09:52:26;;;;;;;20.67;15.40;;;6.80;99.90;;;;;;5031132;28;20171;-58
2021/11/13 09:54:52;;;;;;;20.37;14.97;;;7.00;99.90;;;;;;5023286;28;20207;-61
2021/11/13 09:57:18;;;;;;;20.43;15.43;;;7.30;99.90;;;;;;5029277;28;20176;-60
2021/11/13 09:59:44;;;;;;;20.37;15.50;;;7.40;99.90;;;;;;5029871;28;20180;-61
2021/11/13 10:02:10;;;;;;;21.97;15.47;;;;;;;;;;5031033;28;20202;-62
2021/11/13 10:04:35;;;;;;;24.53;17.10;;;7.20;99.90;;;;;;5014234;28;20709;-64
2021/11/13 10:07:01;;;;;;;24.37;16.90;;;6.90;99.90;;;;;;5011453;28;20212;-62
2021/11/13 10:09:27;;;;;;;22.73;16.40;;;6.60;99.90;;;;;;5018995;28;20234;-64
2021/11/13 10:11:53;;;;;;;20.57;14.67;;;6.50;99.90;;;;;;5031574;28;20233;-65
2021/11/13 10:14:36;;;;;;;21.33;14.83;;;6.70;99.90;;;;;;5031265;28;20229;-59
2021/11/13 10:17:17;;;;;;;21.60;15.13;;;6.70;99.90;;;;;;5016712;28;20299;-64
2021/11/13 10:19:43;;;;;;;17.50;13.17;;;;;;;;;;5031333;28;20550;-64
2021/11/13 10:22:09;;;;;;;18.30;13.50;;;;;;;;;;5029480;28;20266;-57
2021/11/13 10:24:36;;;;;;;18.23;13.07;;;7.20;99.90;;;;;;5027687;28;20207;-62
2021/11/13 10:27:05;;;;;;;22.27;15.43;;;7.50;99.90;;;;;;5026909;28;20265;-64
2021/11/13 10:29:36;;;;;;;17.97;13.23;;;7.50;99.90;;;;;;5033540;28;20234;-61
2021/11/13 10:32:08;;;;;;;18.07;12.53;;;7.00;99.90;;;;;;5031722;28;20186;-63
2021/11/13 10:34:47;;;;;;;19.80;13.93;;;7.00;99.90;;;;;;5014461;28;20618;-64
2021/11/13 10:37:23;;;;;;;21.33;14.53;;;6.80;99.90;;;;;;5034588;23;20325;-54
2021/11/13 10:39:55;;;;;;;19.57;14.30;;;7.20;99.90;;;;;;5026285;28;20674;-48
2021/11/13 10:42:25;;;;;;;18.60;14.10;;;7.40;99.90;;;;;;5029191;28;20207;-46
2021/11/13 10:45:01;;;;;;;19.90;14.07;;;7.30;99.90;;;;;;5028777;28;20263;-53
2021/11/13 10:47:32;;;;;;;18.00;13.37;;;7.50;99.90;;;;;;5033419;28;20204;-54
2021/11/13 10:50:19;;;;;;;18.97;13.43;;;7.60;99.90;;;;;;5013014;28;20198;-52
2021/11/13 10:52:58;;;;;;;14.57;11.40;;;8.10;99.90;;;;;;5010194;28;20259;-56
2021/11/13 10:55:25;;;;;;;13.43;10.33;;;8.40;99.90;;;;;;5015562;28;20238;-45
2021/11/13 10:57:50;;;;;;;14.57;10.13;;;8.00;99.90;;;;;;5021182;28;20787;-56
2021/11/13 11:00:18;;;;;;;14.50;10.57;;;8.70;99.90;;;;;;5027177;28;20198;-49
2021/11/13 11:03:02;;;;;;;15.17;10.10;;;8.70;99.90;;;;;;5030190;28;20183;-52
2021/11/13 11:05:49;;;;;;;15.97;11.67;;;8.70;99.90;;;;;;5017626;28;20184;-54
2021/11/13 11:08:28;;;;;;;22.10;16.73;;;9.40;99.90;;;;;;5010815;28;20173;-51
2021/11/13 11:10:54;;;;;;;26.97;18.30;;;8.70;99.90;;;;;;5010601;28;20594;-53
2021/11/13 11:13:43;;;;;;;23.50;14.73;;;8.90;99.90;;;;;;5009251;28;20211;-53
2021/11/13 11:16:28;;;;;;;19.80;14.00;;;9.00;99.90;;;;;;5009832;28;20204;-50
2021/11/13 11:19:13;;;;;;;17.37;13.20;;;9.10;99.90;;;;;;5010728;28;20172;-55
2021/11/13 11:21:47;;;;;;;17.20;13.13;;;9.10;99.90;;;;;;5010276;28;20184;-53
2021/11/13 11:24:25;;;;;;;17.63;12.33;;;8.60;99.90;;;;;;5009753;28;20168;-55
2021/11/13 11:26:56;;;;;;;17.63;12.57;;;8.70;99.90;;;;;;5009979;28;20690;-50
2021/11/13 11:29:22;;;;;;;18.53;13.43;;;8.50;99.90;;;;;;5010043;28;20227;-52
2021/11/13 11:31:51;;;;;;;18.43;12.90;;;8.80;99.90;;;;;;5010148;28;20180;-50
2021/11/13 11:34:30;;;;;;;17.90;13.33;;;8.60;99.90;;;;;;5010302;28;20177;-51
2021/11/13 11:36:58;;;;;;;18.00;13.73;;;8.40;99.90;;;;;;5009819;28;20218;-57
2021/11/13 11:39:25;;;;;;;16.50;12.67;;;9.10;99.90;;;;;;5010335;28;20810;-55
2021/11/13 11:41:52;;;;;;;18.23;12.00;;;9.10;99.90;;;;;;5009481;28;20185;-48
2021/11/13 11:44:18;;;;;;;15.90;12.00;;;9.10;99.90;;;;;;5009046;28;20176;-54
2021/11/13 11:46:44;;;;;;;17.20;12.23;;;9.00;99.90;;;;;;5009749;28;20567;-56
2021/11/13 11:49:11;;;;;;;15.63;11.97;;;9.00;99.90;;;;;;5009927;28;20175;-53
2021/11/13 11:51:37;;;;;;;16.27;11.93;;;9.30;99.90;;;;;;5009835;28;20184;-52
2021/11/13 11:54:07;;;;;;;15.20;11.43;;;8.80;99.90;;;;;;5009901;28;20180;-57
2021/11/13 11:56:35;;;;;;;14.20;10.83;;;9.40;99.90;;;;;;5008553;28;20623;-57
2021/11/13 11:59:05;;;;;;;15.57;11.93;;;8.80;99.90;;;;;;5009778;28;20200;-52
2021/11/13 12:01:36;;;;;;;14.27;11.90;;;9.20;99.90;;;;;;5009144;28;20165;-55
2021/11/13 12:04:14;;;;;;;16.07;12.77;;;9.20;99.90;;;;;;5009501;28;20235;-55
2021/11/13 12:06:48;;;;;;;14.67;11.93;;;9.70;99.90;;;;;;5007626;28;20196;-54
2021/11/13 12:09:13;;;;;;;15.03;11.17;;;9.30;99.90;;;;;;5009885;28;20199;-49
2021/11/13 12:11:39;;;;;;;14.77;11.40;;;9.40;99.90;;;;;;5011548;28;20180;-56
2021/11/13 12:14:27;;;;;;;13.90;10.97;;;9.50;99.90;;;;;;5012180;28;20191;-55
2021/11/13 12:16:53;;;;;;;16.47;12.07;;;9.50;99.90;;;;;;5013084;28;20674;-57
2021/11/13 12:19:19;;;;;;;15.70;11.53;;;9.50;99.90;;;;;;5012936;28;20177;-55
2021/11/13 12:21:55;;;;;;;15.43;11.73;;;9.30;99.90;;;;;;5012931;28;20171;-57
2021/11/13 12:24:21;;;;;;;16.47;12.13;;;9.30;99.90;;;;;;5011260;28;20235;-51
2021/11/13 12:27:04;;;;;;;15.93;11.97;;;9.30;99.90;;;;;;5012785;28;20192;-51
2021/11/13 12:29:44;;;;;;;16.20;12.30;;;8.90;99.90;;;;;;5011977;28;20187;-57
2021/11/13 12:32:13;;;;;;;17.60;13.80;;;9.50;99.90;;;;;;5012305;28;20199;-52
2021/11/13 12:34:39;;;;;;;16.50;12.43;;;;;;;;;;5012676;28;20208;-57
2021/11/13 12:37:10;;;;;;;15.67;12.00;;;9.00;99.90;;;;;;5012861;28;20270;-55
2021/11/13 12:39:44;;;;;;;16.33;11.63;;;9.20;99.90;;;;;;5013237;28;20181;-55
2021/11/13 12:42:11;;;;;;;15.83;11.70;;;8.90;99.90;;;;;;5012555;28;20195;-56